Time;durP1;ratioP1;P1;durP2;ratioP2;P2;SDS_P1;SDS_P2;PMS_P1;PMS_P2;Temp;Humidity;BMP_temperature;BMP_pressure;BME280_temperature;BME280_humidity;BME280_pressure;Samples;Min_cycle;Max_cycle;Signal;HPM_P1;HPM_P2
2021/07/20 00:00:51;;;;;;;21.03;13.13;;;;;;;;;;5014976;28;20486;-75
2021/07/20 00:03:18;;;;;;;22.13;13.10;;;;;;;;;;5014730;28;20439;-74
2021/07/20 00:05:45;;;;;;;18.13;13.43;;;;;;;;;;5014397;28;20563;-75
2021/07/20 00:08:13;;;;;;;21.80;13.30;;;;;;;;;;5014639;28;20448;-75
2021/07/20 00:10:43;;;;;;;17.70;11.80;;;;;;;;;;5014903;28;20532;-75
2021/07/20 00:13:11;;;;;;;19.80;12.90;;;;;;;;;;5015267;28;20487;-74
2021/07/20 00:15:39;;;;;;;19.20;13.10;;;;;;;;;;5014908;28;20477;-75
2021/07/20 00:18:07;;;;;;;13.87;11.87;;;;;;;;;;5014492;28;20933;-75
2021/07/20 00:20:34;;;;;;;16.97;12.23;;;;;;;;;;5014762;28;20483;-76
2021/07/20 00:23:01;;;;;;;20.20;13.40;;;;;;;;;;5014416;28;20481;-74
2021/07/20 00:25:28;;;;;;;20.20;13.13;;;;;;;;;;5014569;28;20808;-74
2021/07/20 00:27:57;;;;;;;22.37;11.90;;;;;;;;;;5014958;28;20446;-74
2021/07/20 00:30:24;;;;;;;19.43;13.87;;;;;;;;;;5014612;28;20439;-74
2021/07/20 00:32:51;;;;;;;16.07;12.30;;;;;;;;;;5014457;28;20447;-74
2021/07/20 00:35:19;;;;;;;16.40;12.20;;;;;;;;;;5013569;28;20959;-75
2021/07/20 00:37:46;;;;;;;15.93;11.70;;;;;;;;;;5014237;28;20530;-75
2021/07/20 00:40:15;;;;;;;21.70;13.50;;;;;;;;;;5014375;28;20567;-74
2021/07/20 00:42:42;;;;;;;21.13;12.30;;;;;;;;;;5014815;28;20478;-75
2021/07/20 00:45:13;;;;;;;16.00;12.60;;;;;;;;;;5014395;28;20446;-75
2021/07/20 00:47:40;;;;;;;22.67;12.90;;;;;;;;;;5014757;28;20527;-75
2021/07/20 00:50:08;;;;;;;18.90;12.60;;;;;;;;;;5014247;28;20455;-75
2021/07/20 00:52:35;;;;;;;16.40;11.93;;;;;;;;;;5013925;28;20937;-75
2021/07/20 00:55:03;;;;;;;22.07;12.83;;;;;;;;;;5014226;28;20541;-75
2021/07/20 00:57:31;;;;;;;19.23;12.37;;;;;;;;;;5013877;28;20449;-75
2021/07/20 00:59:58;;;;;;;15.60;12.23;;;;;;;;;;5014556;28;20475;-75
2021/07/20 01:02:27;;;;;;;15.00;11.60;;;;;;;;;;5013951;28;20553;-75
2021/07/20 01:04:54;;;;;;;21.13;12.67;;;;;;;;;;5013980;28;20558;-75
2021/07/20 01:07:22;;;;;;;16.00;10.90;;;;;;;;;;5014023;28;20447;-75
2021/07/20 01:09:50;;;;;;;21.80;12.40;;;;;;;;;;5013647;28;20453;-75
2021/07/20 01:12:17;;;;;;;17.67;11.77;;;;;;;;;;5014202;28;20447;-74
2021/07/20 01:14:45;;;;;;;18.80;12.27;;;;;;;;;;5013923;28;20454;-74
2021/07/20 01:17:13;;;;;;;20.53;12.23;;;;;;;;;;5013571;28;20451;-75
2021/07/20 01:19:45;;;;;;;21.27;11.73;;;;;;;;;;5014242;28;20569;-76
2021/07/20 01:22:14;;;;;;;20.33;12.93;;;;;;;;;;5013952;28;20435;-76
2021/07/20 01:24:42;;;;;;;20.53;12.53;;;;;;;;;;5013910;28;20436;-76
2021/07/20 01:27:11;;;;;;;18.03;11.10;;;;;;;;;;5013484;28;20443;-76
2021/07/20 01:29:39;;;;;;;19.40;12.20;;;;;;;;;;5013502;28;21015;-76
2021/07/20 01:32:06;;;;;;;22.33;12.50;;;;;;;;;;5013381;28;20448;-76
2021/07/20 01:34:34;;;;;;;15.90;12.03;;;;;;;;;;5013699;28;20530;-76
2021/07/20 01:37:02;;;;;;;19.27;14.27;;;;;;;;;;5013432;28;20440;-76
2021/07/20 01:39:29;;;;;;;15.97;11.67;;;;;;;;;;5013892;28;20474;-75
2021/07/20 01:41:59;;;;;;;19.00;12.53;;;;;;;;;;5013653;28;20447;-75
2021/07/20 01:44:28;;;;;;;19.20;12.80;;;;;;;;;;5014569;28;20447;-75
2021/07/20 01:46:56;;;;;;;19.60;12.93;;;;;;;;;;5014661;28;20550;-75
2021/07/20 01:49:24;;;;;;;18.93;10.53;;;;;;;;;;5017642;28;20470;-75
2021/07/20 01:51:52;;;;;;;17.20;11.73;;;;;;;;;;5017141;28;20933;-75
2021/07/20 01:54:19;;;;;;;18.13;12.50;;;;;;;;;;5017107;28;20443;-75
2021/07/20 01:56:47;;;;;;;21.37;12.87;;;;;;;;;;5017091;28;20947;-75
2021/07/20 01:59:15;;;;;;;16.70;11.30;;;;;;;;;;5016946;28;20961;-75
2021/07/20 02:01:50;;;;;;;19.13;12.40;;;;;;;;;;5017560;28;20435;-76
2021/07/20 02:09:48;;;;;;;21.07;13.37;;;;;;;;;;5017006;28;20488;-76
2021/07/20 02:12:17;;;;;;;17.50;12.60;;;;;;;;;;5016941;28;20471;-77
2021/07/20 02:14:47;;;;;;;20.17;13.50;;;;;;;;;;5017030;28;20448;-77
2021/07/20 02:17:15;;;;;;;20.33;13.37;;;;;;;;;;5017045;28;20465;-77
2021/07/20 02:19:45;;;;;;;21.13;13.17;;;;;;;;;;5016981;28;20562;-74
2021/07/20 02:22:13;;;;;;;20.43;12.53;;;;;;;;;;5017218;28;20472;-75
2021/07/20 02:24:40;;;;;;;19.53;12.60;;;;;;;;;;5016633;28;20439;-75
2021/07/20 02:27:08;;;;;;;18.63;12.60;;;;;;;;;;5016876;28;20445;-75
2021/07/20 02:29:36;;;;;;;22.63;13.20;;;;;;;;;;5016624;28;20467;-75
2021/07/20 02:32:05;;;;;;;21.63;12.63;;;;;;;;;;5016454;28;20441;-75
2021/07/20 02:34:35;;;;;;;17.70;12.27;;;;;;;;;;5016820;28;20453;-75
2021/07/20 02:37:03;;;;;;;21.63;13.50;;;;;;;;;;5016783;28;20465;-75
2021/07/20 02:39:30;;;;;;;17.13;12.00;;;;;;;;;;5016738;28;20455;-76
2021/07/20 02:41:57;;;;;;;20.33;12.83;;;;;;;;;;5016589;28;20442;-75
2021/07/20 02:44:25;;;;;;;22.37;13.53;;;;;;;;;;5016565;28;20441;-75
2021/07/20 02:46:53;;;;;;;21.47;12.87;;;;;;;;;;5016207;28;20437;-76
2021/07/20 02:49:22;;;;;;;23.63;13.77;;;;;;;;;;5016430;28;20463;-76
2021/07/20 02:51:49;;;;;;;16.43;11.00;;;;;;;;;;5016769;28;20439;-76
2021/07/20 02:54:17;;;;;;;26.23;11.87;;;;;;;;;;5017130;28;20446;-76
2021/07/20 02:56:46;;;;;;;20.47;12.53;;;;;;;;;;5016603;28;20549;-76
2021/07/20 02:59:16;;;;;;;19.97;13.20;;;;;;;;;;5015172;28;20471;-75
2021/07/20 03:01:44;;;;;;;16.07;12.47;;;;;;;;;;5016130;28;20480;-75
2021/07/20 03:04:11;;;;;;;25.13;13.53;;;;;;;;;;5016237;28;20451;-76
2021/07/20 03:06:43;;;;;;;24.47;13.30;;;;;;;;;;5016189;28;20479;-76
2021/07/20 03:09:13;;;;;;;24.70;12.33;;;;;;;;;;5016191;28;20436;-76
2021/07/20 03:11:41;;;;;;;17.60;12.00;;;;;;;;;;5016007;28;20535;-76
2021/07/20 03:14:12;;;;;;;18.40;11.47;;;;;;;;;;5015629;28;20448;-76
2021/07/20 03:16:40;;;;;;;16.67;11.50;;;;;;;;;;5015966;28;20435;-76
2021/07/20 03:19:08;;;;;;;19.60;12.10;;;;;;;;;;5016024;28;20450;-77
2021/07/20 03:21:37;;;;;;;18.73;11.83;;;;;;;;;;5015478;28;20479;-76
2021/07/20 03:24:07;;;;;;;27.60;11.57;;;;;;;;;;5015410;28;20502;-76
2021/07/20 03:26:35;;;;;;;19.60;11.80;;;;;;;;;;5015413;28;20924;-77
2021/07/20 03:29:03;;;;;;;17.20;11.23;;;;;;;;;;5016404;28;20801;-77
2021/07/20 03:31:31;;;;;;;21.80;11.07;;;;;;;;;;5015315;28;20444;-77
2021/07/20 03:33:59;;;;;;;17.53;11.60;;;;;;;;;;5015274;28;20451;-76
2021/07/20 03:36:27;;;;;;;16.87;11.70;;;;;;;;;;5015239;28;20488;-76
2021/07/20 03:38:54;;;;;;;16.13;11.87;;;;;;;;;;5015219;28;20447;-76
2021/07/20 03:41:24;;;;;;;14.63;10.87;;;;;;;;;;5015526;28;20481;-77
2021/07/20 03:43:51;;;;;;;16.00;11.00;;;;;;;;;;5015413;28;20563;-76
2021/07/20 03:46:19;;;;;;;20.50;11.60;;;;;;;;;;5015399;28;20439;-77
2021/07/20 03:48:46;;;;;;;17.47;11.77;;;;;;;;;;5015356;28;20466;-76
2021/07/20 03:51:13;;;;;;;20.40;12.73;;;;;;;;;;5014942;28;20444;-76
2021/07/20 03:53:41;;;;;;;19.07;12.53;;;;;;;;;;5014921;28;20441;-76
2021/07/20 03:56:09;;;;;;;18.70;12.87;;;;;;;;;;5014796;28;20459;-76
2021/07/20 03:58:40;;;;;;;24.53;12.03;;;;;;;;;;5014754;28;20953;-76
2021/07/20 04:01:08;;;;;;;21.30;13.33;;;;;;;;;;5015455;28;20478;-74
2021/07/20 04:03:36;;;;;;;17.53;11.43;;;;;;;;;;5014943;28;20463;-75
2021/07/20 04:06:05;;;;;;;15.53;10.87;;;;;;;;;;5015125;28;20813;-76
2021/07/20 04:08:33;;;;;;;18.40;12.03;;;;;;;;;;5014971;28;20440;-76
2021/07/20 04:11:01;;;;;;;19.80;11.63;;;;;;;;;;5014749;28;20847;-75
2021/07/20 04:13:29;;;;;;;23.10;11.57;;;;;;;;;;5015142;28;20451;-74
2021/07/20 04:16:01;;;;;;;19.10;11.80;;;;;;;;;;5014826;28;20442;-74
2021/07/20 04:18:30;;;;;;;20.03;12.00;;;;;;;;;;5014538;28;20433;-75
2021/07/20 04:20:57;;;;;;;21.03;11.90;;;;;;;;;;5014670;28;20817;-74
2021/07/20 04:23:25;;;;;;;17.57;11.30;;;;;;;;;;5014582;28;20444;-76
2021/07/20 04:25:54;;;;;;;19.60;11.93;;;;;;;;;;5014999;28;20451;-76
2021/07/20 04:28:23;;;;;;;13.87;10.27;;;;;;;;;;5014336;28;20455;-75
2021/07/20 04:30:51;;;;;;;17.80;12.60;;;;;;;;;;5013942;28;20478;-77
2021/07/20 04:33:24;;;;;;;14.97;11.30;;;;;;;;;;5014276;28;20514;-77
2021/07/20 04:35:52;;;;;;;14.00;10.07;;;;;;;;;;5014768;28;20463;-77
2021/07/20 04:38:19;;;;;;;17.83;10.47;;;;;;;;;;5007397;28;20451;-76
2021/07/20 04:40:47;;;;;;;19.47;11.43;;;;;;;;;;5002807;28;20472;-77
2021/07/20 04:43:14;;;;;;;18.17;10.37;;;;;;;;;;4994754;28;20954;-78
2021/07/20 04:45:42;;;;;;;18.80;11.00;;;;;;;;;;4995097;28;20445;-76
2021/07/20 04:48:10;;;;;;;15.83;10.30;;;;;;;;;;4994965;28;20513;-76
2021/07/20 04:50:39;;;;;;;15.67;11.07;;;;;;;;;;4994833;28;20460;-76
2021/07/20 04:53:06;;;;;;;15.53;11.50;;;;;;;;;;4994579;28;20441;-76
2021/07/20 04:55:34;;;;;;;14.30;11.07;;;;;;;;;;4994361;28;20445;-77
2021/07/20 04:58:02;;;;;;;18.67;10.17;;;;;;;;;;4994690;28;20448;-78
2021/07/20 05:00:30;;;;;;;15.70;10.33;;;;;;;;;;4994364;28;20476;-76
2021/07/20 05:02:58;;;;;;;18.27;10.47;;;;;;;;;;4994587;28;20775;-77
2021/07/20 05:05:25;;;;;;;15.40;10.37;;;;;;;;;;4996534;28;21077;-76
2021/07/20 05:07:54;;;;;;;16.00;11.13;;;;;;;;;;5002621;28;20450;-78
2021/07/20 05:10:22;;;;;;;15.23;11.20;;;;;;;;;;4993967;28;20445;-79
2021/07/20 05:12:50;;;;;;;23.93;10.90;;;;;;;;;;4994553;28;20479;-78
2021/07/20 05:15:19;;;;;;;15.23;10.57;;;;;;;;;;4993887;28;21012;-77
2021/07/20 05:17:46;;;;;;;17.20;10.73;;;;;;;;;;4993389;28;20893;-76
2021/07/20 05:20:15;;;;;;;18.20;10.50;;;;;;;;;;4994052;28;20813;-76
2021/07/20 05:22:43;;;;;;;14.60;8.80;;;;;;;;;;4993463;28;20444;-68
2021/07/20 05:25:12;;;;;;;12.60;10.30;;;;;;;;;;4993891;28;20448;-69
2021/07/20 05:27:42;;;;;;;12.50;9.53;;;;;;;;;;4994796;28;20444;-70
2021/07/20 05:30:09;;;;;;;13.00;9.47;;;;;;;;;;4994169;28;20448;-70
2021/07/20 05:32:38;;;;;;;12.50;9.50;;;;;;;;;;4994726;28;20919;-70
2021/07/20 05:35:05;;;;;;;18.00;10.67;;;;;;;;;;4994217;28;20441;-70
2021/07/20 05:37:35;;;;;;;13.10;9.37;;;;;;;;;;4994189;28;20524;-70
2021/07/20 05:40:03;;;;;;;17.87;11.13;;;;;;;;;;4994712;28;20452;-70
2021/07/20 05:42:32;;;;;;;19.60;11.10;;;;;;;;;;4993891;28;20831;-70
2021/07/20 05:45:00;;;;;;;16.70;10.80;;;;;;;;;;4994209;28;20451;-70
2021/07/20 05:47:28;;;;;;;16.30;11.30;;;;;;;;;;4994036;28;20484;-70
2021/07/20 05:49:55;;;;;;;16.27;9.30;;;;;;;;;;4993923;28;20843;-70
2021/07/20 05:52:22;;;;;;;18.20;10.50;;;;;;;;;;4993651;28;20444;-70
2021/07/20 05:54:49;;;;;;;20.30;10.67;;;;;;;;;;4993692;28;20455;-70
2021/07/20 05:57:17;;;;;;;18.93;11.40;;;;;;;;;;4993663;28;20448;-70
2021/07/20 05:59:46;;;;;;;17.10;9.70;;;;;;;;;;4993607;28;20968;-70
2021/07/20 06:02:15;;;;;;;15.00;11.37;;;;;;;;;;4994643;28;20476;-70
2021/07/20 06:04:43;;;;;;;15.10;9.40;;;;;;;;;;4993692;28;20476;-70
2021/07/20 06:07:10;;;;;;;15.73;9.90;;;;;;;;;;4994054;28;20434;-70
2021/07/20 06:09:37;;;;;;;15.43;10.50;;;;;;;;;;4994205;28;20532;-70
2021/07/20 06:12:08;;;;;;;17.40;10.17;;;;;;;;;;4993945;28;20858;-70
2021/07/20 06:14:37;;;;;;;16.63;10.30;;;;;;;;;;4993576;28;20519;-70
2021/07/20 06:17:05;;;;;;;16.67;9.83;;;;;;;;;;4993816;28;20440;-70
2021/07/20 06:19:33;;;;;;;14.53;9.83;;;;;;;;;;4993672;28;20473;-71
2021/07/20 06:22:02;;;;;;;14.90;9.90;;;;;;;;;;4993342;28;20524;-70
2021/07/20 06:24:30;;;;;;;12.53;8.70;;;;;;;;;;4993966;28;20531;-70
2021/07/20 06:26:58;;;;;;;15.47;8.57;;;;;;;;;;4993744;28;20449;-70
2021/07/20 06:29:25;;;;;;;9.87;8.50;;;;;;;;;;4993425;28;20954;-70
2021/07/20 06:31:53;;;;;;;14.30;8.47;;;;;;;;;;4993386;28;20941;-70
2021/07/20 06:34:22;;;;;;;10.53;7.60;;;;;;;;;;4994610;28;20444;-70
2021/07/20 06:36:49;;;;;;;13.47;7.60;;;;;;;;;;4997303;28;20812;-70
2021/07/20 06:39:17;;;;;;;9.20;7.13;;;;;;;;;;4997037;28;20476;-70
2021/07/20 06:41:45;;;;;;;9.80;6.63;;;;;;;;;;4997595;28;20501;-69
2021/07/20 06:44:13;;;;;;;8.00;6.50;;;;;;;;;;4996941;28;20432;-70
2021/07/20 06:46:41;;;;;;;7.77;6.17;;;;;;;;;;4996864;28;20454;-70
2021/07/20 06:49:08;;;;;;;7.03;5.40;;;;;;;;;;4997146;28;20920;-70
2021/07/20 06:51:37;;;;;;;8.10;6.40;;;;;;;;;;4996565;28;20486;-70
2021/07/20 06:54:04;;;;;;;10.17;8.47;;;;;;;;;;4996797;28;20443;-68
2021/07/20 06:56:33;;;;;;;9.83;7.00;;;;;;;;;;4997145;28;20447;-68
2021/07/20 06:59:01;;;;;;;10.83;7.27;;;;;;;;;;4996320;28;20487;-69
2021/07/20 07:01:30;;;;;;;11.63;7.10;;;;;;;;;;4996243;28;20476;-69
2021/07/20 07:04:00;;;;;;;7.93;5.43;;;;;;;;;;4996683;28;20456;-69
2021/07/20 07:06:28;;;;;;;8.57;4.80;;;;;;;;;;4996835;28;20825;-69
2021/07/20 07:08:57;;;;;;;8.03;4.90;;;;;;;;;;4996535;28;20445;-68
2021/07/20 07:11:27;;;;;;;7.47;5.30;;;;;;;;;;4996503;28;20448;-69
2021/07/20 07:13:54;;;;;;;8.87;5.70;;;;;;;;;;4996084;28;20927;-68
2021/07/20 07:16:22;;;;;;;8.10;6.00;;;;;;;;;;4996614;28;20451;-69
2021/07/20 07:18:49;;;;;;;10.20;5.50;;;;;;;;;;4996759;28;20479;-70
2021/07/20 07:21:17;;;;;;;7.90;6.73;;;;;;;;;;4996523;28;20476;-69
2021/07/20 07:23:47;;;;;;;7.00;6.30;;;;;;;;;;4996225;28;20444;-69
2021/07/20 07:26:16;;;;;;;8.73;6.13;;;;;;;;;;4995908;28;20455;-70
2021/07/20 07:28:45;;;;;;;9.87;5.07;;;;;;;;;;4996370;28;20436;-69
2021/07/20 07:31:13;;;;;;;4.67;4.20;;;;;;;;;;4995806;28;20448;-70
2021/07/20 07:33:40;;;;;;;6.07;5.47;;;;;;;;;;4995573;28;20459;-71
2021/07/20 07:36:07;;;;;;;6.97;5.90;;;;;;;;;;4996009;28;20448;-69
2021/07/20 07:38:35;;;;;;;7.57;5.83;;;;;;;;;;4995634;28;20440;-69
2021/07/20 07:41:03;;;;;;;7.53;6.20;;;;;;;;;;4996277;28;20476;-68
2021/07/20 07:43:33;;;;;;;8.50;6.03;;;;;;;;;;4995824;28;20450;-69
2021/07/20 07:46:02;;;;;;;5.90;5.27;;;;;;;;;;4995421;28;20440;-69
2021/07/20 07:48:36;;;;;;;10.07;6.57;;;;;;;;;;4995434;28;20440;-69
2021/07/20 07:51:04;;;;;;;9.30;6.10;;;;;;;;;;4995429;28;20432;-68
2021/07/20 07:53:31;;;;;;;7.90;6.77;;;;;;;;;;4995651;28;20460;-69
2021/07/20 07:55:59;;;;;;;8.60;6.87;;;;;;;;;;4996410;28;20451;-69
2021/07/20 07:58:29;;;;;;;12.13;7.83;;;;;;;;;;4995601;28;20444;-69
2021/07/20 08:00:58;;;;;;;8.53;5.60;;;;;;;;;;4995505;28;20543;-68
2021/07/20 08:03:28;;;;;;;11.40;6.37;;;;;;;;;;4995426;28;20564;-69
2021/07/20 08:05:55;;;;;;;9.13;6.20;;;;;;;;;;4995827;28;21028;-69
2021/07/20 08:08:23;;;;;;;8.50;5.27;;;;;;;;;;4995728;28;20442;-68
2021/07/20 08:10:51;;;;;;;10.73;6.57;;;;;;;;;;4995667;28;20523;-69
2021/07/20 08:13:19;;;;;;;7.13;6.30;;;;;;;;;;4995050;28;20922;-69
2021/07/20 08:15:49;;;;;;;8.90;6.07;;;;;;;;;;4995323;28;20469;-69
2021/07/20 08:18:19;;;;;;;7.27;5.33;;;;;;;;;;4995252;28;20442;-69
2021/07/20 08:20:47;;;;;;;8.70;6.40;;;;;;;;;;4995877;28;20441;-70
2021/07/20 08:23:14;;;;;;;8.33;6.10;;;;;;;;;;4994738;28;20570;-69
2021/07/20 08:25:43;;;;;;;7.13;5.90;;;;;;;;;;4995118;28;20807;-67
2021/07/20 08:28:12;;;;;;;9.70;6.80;;;;;;;;;;4995014;28;20878;-68
2021/07/20 08:30:42;;;;;;;5.90;5.27;;;;;;;;;;4994656;28;20536;-68
2021/07/20 08:33:11;;;;;;;7.60;5.70;;;;;;;;;;4995170;28;20444;-68
2021/07/20 08:35:40;;;;;;;7.20;5.80;;;;;;;;;;4995679;28;20928;-68
2021/07/20 08:38:08;;;;;;;7.60;5.63;;;;;;;;;;4994518;28;20947;-68
2021/07/20 08:40:43;;;;;;;7.03;5.47;;;;;;;;;;4994931;28;20444;-68
2021/07/20 08:43:14;;;;;;;8.23;5.50;;;;;;;;;;4994374;28;20471;-69
2021/07/20 08:45:51;;;;;;;8.30;6.17;;;;;;;;;;4995475;28;20431;-69
2021/07/20 08:48:22;;;;;;;7.53;5.80;;;;;;;;;;4994446;28;20895;-69
2021/07/20 08:50:57;;;;;;;12.00;6.97;;;;;;;;;;4994443;28;20430;-68
2021/07/20 08:53:35;;;;;;;7.97;6.40;;;;;;;;;;4994639;28;20433;-69
2021/07/20 08:56:03;;;;;;;8.83;6.30;;;;;;;;;;4994057;28;20437;-68
2021/07/20 08:58:33;;;;;;;12.43;6.07;;;;;;;;;;4993767;28;20544;-68
2021/07/20 09:01:02;;;;;;;7.27;5.90;;;;;;;;;;4994562;28;20449;-68
2021/07/20 09:03:42;;;;;;;9.90;5.77;;;;;;;;;;4994360;28;20486;-68
2021/07/20 09:06:13;;;;;;;9.77;6.30;;;;;;;;;;4994860;28;20510;-68
2021/07/20 09:08:44;;;;;;;9.50;6.17;;;;;;;;;;4994545;28;20433;-69
2021/07/20 09:11:12;;;;;;;10.90;6.50;;;;;;;;;;4994818;28;20446;-69
2021/07/20 09:13:41;;;;;;;15.30;8.00;;;;;;;;;;4994273;28;20441;-69
2021/07/20 09:16:12;;;;;;;9.60;7.03;;;;;;;;;;4994680;28;20447;-68
2021/07/20 09:18:45;;;;;;;6.37;5.73;;;;;;;;;;4994352;28;20442;-69
2021/07/20 09:21:14;;;;;;;8.23;6.20;;;;;;;;;;4994954;28;20525;-69
2021/07/20 09:23:46;;;;;;;11.67;6.20;;;;;;;;;;4994552;28;20513;-70
2021/07/20 09:26:15;;;;;;;10.83;6.93;;;;;;;;;;4994838;28;20438;-69
2021/07/20 09:28:43;;;;;;;9.50;6.27;;;;;;;;;;4994089;28;20459;-69
2021/07/20 09:31:14;;;;;;;6.60;5.90;;;;;;;;;;4994389;28;20454;-69
2021/07/20 09:33:46;;;;;;;12.03;6.20;;;;;;;;;;4993761;28;20432;-69
2021/07/20 09:36:17;;;;;;;7.50;6.70;;;;;;;;;;4994597;28;20435;-68
2021/07/20 09:38:53;;;;;;;8.77;5.97;;;;;;;;;;4994621;28;20429;-69
2021/07/20 09:41:25;;;;;;;8.70;7.30;;;;;;;;;;4994540;28;20837;-69
2021/07/20 09:43:58;;;;;;;6.50;5.87;;;;;;;;;;4993711;28;20469;-69
2021/07/20 09:46:29;;;;;;;7.17;6.30;;;;;;;;;;4994028;28;20796;-69
2021/07/20 09:49:00;;;;;;;9.00;6.40;;;;;;;;;;4994102;28;20441;-69
2021/07/20 09:51:42;;;;;;;8.70;7.63;;;;;;;;;;4994160;28;20861;-69
2021/07/20 09:54:16;;;;;;;12.17;6.53;;;;;;;;;;4993814;28;20470;-69
2021/07/20 09:56:51;;;;;;;7.73;6.70;;;;;;;;;;4994317;28;20437;-69
2021/07/20 09:59:23;;;;;;;7.30;5.23;;;;;;;;;;4994227;28;20494;-69
2021/07/20 10:01:54;;;;;;;13.90;7.30;;;;;;;;;;4994169;28;20435;-70
2021/07/20 10:04:24;;;;;;;8.03;6.00;;;;;;;;;;4993696;28;20909;-70
2021/07/20 10:06:54;;;;;;;7.07;5.90;;;;;;;;;;4993660;28;20469;-68
2021/07/20 10:09:25;;;;;;;8.60;6.47;;;;;;;;;;4996717;28;20534;-69
2021/07/20 10:11:56;;;;;;;21.43;17.60;;;;;;;;;;4997921;28;20469;-69
2021/07/20 10:14:26;;;;;;;13.70;8.13;;;;;;;;;;4997958;28;20453;-69
2021/07/20 10:16:56;;;;;;;10.97;7.07;;;;;;;;;;4997773;28;20436;-69
2021/07/20 10:19:29;;;;;;;9.60;6.33;;;;;;;;;;4997729;28;20459;-69
2021/07/20 10:22:00;;;;;;;7.30;5.93;;;;;;;;;;4997524;28;20431;-69
2021/07/20 10:24:28;;;;;;;7.10;6.40;;;;;;;;;;4997667;28;20524;-70
2021/07/20 10:26:58;;;;;;;9.13;6.50;;;;;;;;;;4997315;28;20803;-69
2021/07/20 10:29:30;;;;;;;7.50;5.60;;;;;;;;;;4997015;28;20444;-69
2021/07/20 10:32:02;;;;;;;7.13;6.10;;;;;;;;;;4996920;28;20430;-69
2021/07/20 10:34:31;;;;;;;7.70;6.50;;;;;;;;;;4997349;28;20491;-69
2021/07/20 10:37:06;;;;;;;9.53;6.70;;;;;;;;;;4997634;28;20993;-68
2021/07/20 10:39:37;;;;;;;8.20;5.63;;;;;;;;;;4997264;28;20449;-69
2021/07/20 10:42:07;;;;;;;8.90;6.00;;;;;;;;;;4997494;28;20446;-69
2021/07/20 10:44:38;;;;;;;7.17;5.73;;;;;;;;;;4997277;28;20510;-69
2021/07/20 10:47:06;;;;;;;7.33;5.70;;;;;;;;;;4997243;28;20527;-69
2021/07/20 10:49:35;;;;;;;7.13;5.93;;;;;;;;;;4996807;28;20970;-69
2021/07/20 10:52:07;;;;;;;7.10;5.97;;;;;;;;;;4996528;28;20449;-69
2021/07/20 10:54:38;;;;;;;8.70;7.20;;;;;;;;;;4997150;28;20435;-70
2021/07/20 10:57:06;;;;;;;7.40;6.57;;;;;;;;;;4997297;28;20426;-68
2021/07/20 10:59:45;;;;;;;8.13;6.33;;;;;;;;;;4997245;28;20462;-68
2021/07/20 11:02:18;;;;;;;8.63;6.40;;;;;;;;;;4996896;28;20435;-69
2021/07/20 11:04:48;;;;;;;7.80;5.80;;;;;;;;;;4996340;28;20484;-69
2021/07/20 11:07:21;;;;;;;9.13;6.63;;;;;;;;;;4996808;28;20466;-69
2021/07/20 11:09:50;;;;;;;7.60;5.57;;;;;;;;;;4996290;28;20927;-69
2021/07/20 11:12:18;;;;;;;6.57;5.70;;;;;;;;;;4996788;28;20493;-69
2021/07/20 11:14:47;;;;;;;7.60;6.53;;;;;;;;;;4996486;28;20517;-69
2021/07/20 11:17:15;;;;;;;7.90;6.27;;;;;;;;;;4997136;28;20439;-69
2021/07/20 11:19:42;;;;;;;8.10;6.90;;;;;;;;;;4995501;28;20948;-69
2021/07/20 11:22:10;;;;;;;10.47;6.73;;;;;;;;;;4996932;28;20801;-69
2021/07/20 11:24:39;;;;;;;13.97;6.57;;;;;;;;;;4996215;28;20549;-69
2021/07/20 11:27:06;;;;;;;9.27;6.27;;;;;;;;;;4996450;28;20444;-69
2021/07/20 11:29:34;;;;;;;8.10;6.70;;;;;;;;;;4996200;28;20532;-68
2021/07/20 11:32:04;;;;;;;8.90;6.37;;;;;;;;;;4996089;28;20451;-68
2021/07/20 11:34:35;;;;;;;7.30;5.20;;;;;;;;;;4995886;28;20458;-68
2021/07/20 11:37:04;;;;;;;7.10;5.90;;;;;;;;;;4996668;28;20428;-68
2021/07/20 11:39:38;;;;;;;6.93;5.83;;;;;;;;;;4996231;28;20470;-69
2021/07/20 11:42:11;;;;;;;7.17;4.83;;;;;;;;;;4995734;28;20927;-68
2021/07/20 11:44:43;;;;;;;8.43;5.60;;;;;;;;;;4996639;28;20472;-68
2021/07/20 11:47:14;;;;;;;5.80;5.07;;;;;;;;;;4996302;28;20527;-68
2021/07/20 11:49:44;;;;;;;7.57;5.87;;;;;;;;;;4995944;28;20444;-69
2021/07/20 11:52:16;;;;;;;7.30;6.20;;;;;;;;;;4995827;28;20439;-68
2021/07/20 11:54:47;;;;;;;8.43;6.03;;;;;;;;;;4995777;28;20439;-70
2021/07/20 11:57:31;;;;;;;6.97;5.47;;;;;;;;;;4995908;28;20439;-68
2021/07/20 12:00:06;;;;;;;9.93;6.20;;;;;;;;;;4995417;28;20441;-68
2021/07/20 12:03:03;;;;;;;6.70;5.90;;;;;;;;;;4995297;28;20501;-68
2021/07/20 12:05:44;;;;;;;11.10;5.30;;;;;;;;;;4994978;28;21031;-69
2021/07/20 12:08:17;;;;;;;6.57;5.80;;;;;;;;;;4995618;28;20949;-68
2021/07/20 12:10:47;;;;;;;6.30;5.50;;;;;;;;;;4994988;28;20435;-68
2021/07/20 12:13:18;;;;;;;10.10;5.93;;;;;;;;;;4995113;28;20454;-68
2021/07/20 12:15:47;;;;;;;6.87;5.60;;;;;;;;;;4995408;28;20900;-68
2021/07/20 12:18:14;;;;;;;8.37;5.80;;;;;;;;;;4995308;28;20452;-69
2021/07/20 12:20:43;;;;;;;6.63;5.77;;;;;;;;;;4994866;28;20461;-68
2021/07/20 12:23:11;;;;;;;6.50;5.40;;;;;;;;;;4995127;28;20520;-69
2021/07/20 12:25:40;;;;;;;7.70;5.47;;;;;;;;;;4995166;28;20475;-69
2021/07/20 12:28:08;;;;;;;9.23;5.17;;;;;;;;;;4995078;28;20857;-69
2021/07/20 12:30:37;;;;;;;8.40;6.53;;;;;;;;;;4994999;28;20440;-68
2021/07/20 12:33:05;;;;;;;6.80;5.63;;;;;;;;;;4995148;28;20472;-69
2021/07/20 12:35:33;;;;;;;8.93;5.67;;;;;;;;;;4994407;28;20551;-69
2021/07/20 12:38:01;;;;;;;6.70;5.70;;;;;;;;;;4995184;28;20526;-72
2021/07/20 12:40:29;;;;;;;11.93;5.43;;;;;;;;;;4994971;28;20447;-72
2021/07/20 12:42:56;;;;;;;8.77;5.73;;;;;;;;;;4995050;28;20455;-73
2021/07/20 12:45:23;;;;;;;8.87;7.27;;;;;;;;;;4994497;28;20941;-73
2021/07/20 12:47:52;;;;;;;7.53;6.63;;;;;;;;;;4994799;28;20434;-72
2021/07/20 12:50:22;;;;;;;8.30;7.10;;;;;;;;;;4994797;28;20473;-71
2021/07/20 12:52:51;;;;;;;7.47;6.17;;;;;;;;;;4995280;28;20797;-73
2021/07/20 12:55:19;;;;;;;9.13;5.40;;;;;;;;;;4995122;28;20503;-74
2021/07/20 12:57:51;;;;;;;6.50;5.63;;;;;;;;;;4995209;28;20563;-74
2021/07/20 13:00:22;;;;;;;5.70;5.13;;;;;;;;;;5003074;28;20436;-74
2021/07/20 13:02:50;;;;;;;7.07;5.40;;;;;;;;;;4994464;28;20527;-73
2021/07/20 13:05:19;;;;;;;5.50;5.00;;;;;;;;;;4994078;28;20482;-73
2021/07/20 13:07:47;;;;;;;10.60;7.60;;;;;;;;;;4994029;28;20445;-72
2021/07/20 13:10:14;;;;;;;6.63;5.43;;;;;;;;;;4994441;28;20522;-73
2021/07/20 13:12:42;;;;;;;7.00;5.80;;;;;;;;;;4994298;28;20527;-73
2021/07/20 13:15:13;;;;;;;7.63;6.20;;;;;;;;;;4994349;28;20455;-73
2021/07/20 13:17:40;;;;;;;8.20;6.47;;;;;;;;;;4994256;28;20803;-73
2021/07/20 13:20:08;;;;;;;7.27;5.73;;;;;;;;;;4993946;28;20545;-73
2021/07/20 13:22:38;;;;;;;5.93;5.23;;;;;;;;;;4994435;28;20523;-73
2021/07/20 13:25:06;;;;;;;5.90;5.20;;;;;;;;;;4993881;28;20601;-72
2021/07/20 13:27:36;;;;;;;7.23;5.67;;;;;;;;;;4998036;28;20440;-72
2021/07/20 13:30:04;;;;;;;6.80;5.40;;;;;;;;;;5013911;28;20434;-72
2021/07/20 13:32:31;;;;;;;6.30;5.10;;;;;;;;;;5013719;28;20442;-72
2021/07/20 13:34:58;;;;;;;5.43;4.93;;;;;;;;;;5013559;28;20544;-72
2021/07/20 13:37:26;;;;;;;5.60;5.03;;;;;;;;;;5013600;28;20539;-72
2021/07/20 13:39:54;;;;;;;6.63;5.27;;;;;;;;;;5013649;28;20533;-72
2021/07/20 13:42:22;;;;;;;9.07;5.77;;;;;;;;;;5013488;28;20453;-71
2021/07/20 13:44:50;;;;;;;6.30;5.07;;;;;;;;;;5017987;28;20479;-72
2021/07/20 13:47:26;;;;;;;8.03;4.63;;;;;;;;;;5018235;28;20466;-71
2021/07/20 13:49:55;;;;;;;7.70;4.90;;;;;;;;;;5017388;28;20503;-72
2021/07/20 13:52:25;;;;;;;16.60;5.37;;;;;;;;;;5017571;28;20534;-72
2021/07/20 13:54:55;;;;;;;6.77;5.30;;;;;;;;;;5017797;28;20464;-70
2021/07/20 13:57:24;;;;;;;6.63;5.17;;;;;;;;;;5017347;28;20453;-70
2021/07/20 13:59:56;;;;;;;7.97;6.43;;;;;;;;;;5017370;28;20533;-70
2021/07/20 14:02:23;;;;;;;5.07;4.57;;;;;;;;;;5017287;28;20856;-70
2021/07/20 14:04:51;;;;;;;9.00;5.60;;;;;;;;;;5017454;28;20505;-71
2021/07/20 14:07:20;;;;;;;6.77;4.80;;;;;;;;;;5017390;28;20451;-70
2021/07/20 14:09:48;;;;;;;5.50;4.27;;;;;;;;;;5017391;28;20453;-71
2021/07/20 14:12:15;;;;;;;6.23;5.47;;;;;;;;;;5017290;28;20480;-71
2021/07/20 14:14:45;;;;;;;6.30;4.80;;;;;;;;;;5017103;28;20568;-71
2021/07/20 14:17:12;;;;;;;6.43;5.50;;;;;;;;;;5017148;28;20448;-70
2021/07/20 14:19:40;;;;;;;8.00;4.73;;;;;;;;;;5017004;28;20466;-71
2021/07/20 14:22:07;;;;;;;7.73;6.00;;;;;;;;;;5017485;28;20528;-70
2021/07/20 14:24:36;;;;;;;5.70;4.70;;;;;;;;;;5016928;28;20483;-70
2021/07/20 14:27:03;;;;;;;5.00;4.57;;;;;;;;;;5016940;28;20819;-71
2021/07/20 14:29:32;;;;;;;5.67;4.80;;;;;;;;;;5016358;28;20446;-71
2021/07/20 14:32:04;;;;;;;6.27;5.10;;;;;;;;;;5017277;28;20974;-71
2021/07/20 14:34:42;;;;;;;4.47;4.07;;;;;;;;;;5015160;28;20459;-71
2021/07/20 14:37:09;;;;;;;7.33;4.73;;;;;;;;;;5007294;28;20475;-71
2021/07/20 14:39:37;;;;;;;7.70;5.97;;;;;;;;;;4996603;28;20532;-71
2021/07/20 14:42:05;;;;;;;6.03;4.50;;;;;;;;;;4997739;28;20534;-70
2021/07/20 14:44:33;;;;;;;4.73;4.33;;;;;;;;;;4997401;28;20539;-70
2021/07/20 14:47:00;;;;;;;6.80;5.90;;;;;;;;;;4996902;28;20871;-70